Time;durP1;ratioP1;P1;durP2;ratioP2;P2;SDS_P1;SDS_P2;PMS_P1;PMS_P2;Temp;Humidity;BMP_temperature;BMP_pressure;BME280_temperature;BME280_humidity;BME280_pressure;Samples;Min_cycle;Max_cycle;Signal;HPM_P1;HPM_P2
2021/09/23 00:01:30;;;;;;;6.95;2.30;;;;;;;28.83;56.39;100777.53;5041510;28;66071;-37
2021/09/23 00:04:16;;;;;;;4.65;1.80;;;;;;;28.91;56.47;100780.03;5041429;28;69503;-37
2021/09/23 00:06:46;;;;;;;3.08;2.15;;;;;;;28.96;56.01;100799.13;5046295;28;65805;-39
2021/09/23 00:09:17;;;;;;;4.40;2.33;;;;;;;29.05;57.29;100798.94;5041112;28;71401;-37
2021/09/23 00:11:48;;;;;;;7.50;2.83;;;;;;;29.12;58.91;100802.47;5042568;28;65489;-37
2021/09/23 00:14:19;;;;;;;6.25;3.15;;;;;;;29.16;59.73;100809.09;5042072;28;69295;-37
2021/09/23 00:16:51;;;;;;;4.18;3.03;;;;;;;29.24;60.75;100817.00;5045513;28;67294;-36
2021/09/23 00:19:25;;;;;;;3.63;3.28;;;;;;;29.26;61.17;100814.91;5038769;28;70225;-36
2021/09/23 00:21:56;;;;;;;6.60;4.10;;;;;;;29.33;61.25;100829.22;5049067;28;65370;-36
2021/09/23 00:24:27;;;;;;;4.18;3.40;;;;;;;29.36;61.99;100831.53;5049437;28;69242;-36
2021/09/23 00:26:58;;;;;;;4.38;3.17;;;;;;;29.38;61.81;100842.94;5039447;28;67281;-36
2021/09/23 00:29:30;;;;;;;;;;;;;;;29.16;63.61;100842.34;5040717;28;68829;-36
2021/09/23 00:32:04;;;;;;;4.78;3.80;;;;;;;29.44;61.96;100840.44;5047485;28;65756;-36
2021/09/23 00:34:36;;;;;;;4.32;3.78;;;;;;;29.52;62.72;100845.63;5027772;28;70215;-36
2021/09/23 00:37:10;;;;;;;12.55;3.78;;;;;;;29.55;62.42;100845.19;5052055;28;66142;-36
2021/09/23 00:39:43;;;;;;;6.65;3.67;;;;;;;29.59;62.82;100843.72;5032918;28;70056;-36
2021/09/23 00:42:21;;;;;;;7.57;3.90;;;;;;;29.63;62.51;100845.00;5051274;28;66878;-36
2021/09/23 00:45:20;;;;;;;11.55;3.95;;;;;;;29.54;63.43;100849.75;5049944;28;70027;-36
2021/09/23 00:48:04;;;;;;;6.30;3.80;;;;;;;29.66;62.65;100849.13;5043052;27;66292;-36
2021/09/23 00:50:43;;;;;;;3.70;3.40;;;;;;;29.69;62.98;100856.81;5033923;28;69866;-37
2021/09/23 00:53:29;;;;;;;8.75;3.90;;;;;;;29.72;62.99;100862.63;5047595;28;65883;-36
2021/09/23 00:56:16;;;;;;;3.75;3.45;;;;;;;29.73;62.89;100863.47;5049315;27;70014;-36
2021/09/23 00:58:50;;;;;;;5.85;3.40;;;;;;;29.73;63.20;100869.72;5038184;28;66273;-36
2021/09/23 01:02:03;;;;;;;11.15;4.15;;;;;;;29.67;63.77;100881.38;5044686;28;69259;-35
2021/09/23 01:05:06;;;;;;;19.98;5.38;;;;;;;29.67;62.97;100877.81;5048590;28;66293;-41
2021/09/23 01:08:20;;;;;;;14.30;5.13;;;;;;;29.73;63.16;100874.28;5045157;28;70504;-36
2021/09/23 01:11:07;;;;;;;12.02;5.28;;;;;;;29.73;63.79;100880.53;5045615;28;65393;-37
2021/09/23 01:14:05;;;;;;;8.00;5.13;;;;;;;29.78;63.87;100882.56;5049777;28;69160;-37
2021/09/23 01:17:05;;;;;;;12.82;4.82;;;;;;;29.78;64.26;100883.44;5034214;28;66567;-36
2021/09/23 01:20:00;;;;;;;10.52;5.30;;;;;;;29.78;64.99;100880.72;5050219;28;70728;-37
2021/09/23 01:22:38;;;;;;;7.55;5.60;;;;;;;29.83;64.76;100894.41;5026655;28;65683;-37
2021/09/23 01:26:02;;;;;;;;;;;;;;;29.55;66.21;100883.03;5036900;28;69176;-37
2021/09/23 01:28:51;;;;;;;5.43;4.93;;;;;;;29.82;65.39;100895.47;5041143;28;65376;-37
2021/09/23 01:31:35;;;;;;;9.95;5.60;;;;;;;29.88;65.35;100887.53;5041903;28;69288;-37
2021/09/23 01:34:42;;;;;;;5.28;4.88;;;;;;;29.92;65.02;100896.88;5028659;28;66580;-36
2021/09/23 01:37:23;;;;;;;5.30;4.90;;;;;;;29.93;65.22;100895.84;5011509;28;70091;-36
2021/09/23 01:40:13;;;;;;;8.88;4.97;;;;;;;29.96;64.79;100895.44;5034790;28;67255;-45
2021/09/23 01:43:02;;;;;;;7.68;4.72;;;;;;;29.97;64.81;100905.19;5037849;28;69797;-36
2021/09/23 01:45:39;;;;;;;8.70;5.00;;;;;;;30.02;64.83;100905.38;5015634;28;67247;-37
2021/09/23 01:48:27;;;;;;;5.65;5.15;;;;;;;30.03;65.52;100907.03;5034652;28;70618;-37
2021/09/23 01:51:12;;;;;;;7.05;4.90;;;;;;;30.04;65.14;100897.91;5031188;28;66591;-37
2021/09/23 01:54:10;;;;;;;5.63;5.13;;;;;;;30.08;65.60;100909.94;5042274;28;69511;-37
2021/09/23 01:56:46;;;;;;;5.60;4.72;;;;;;;30.12;65.51;100902.25;5015651;28;66241;-37
2021/09/23 01:59:37;;;;;;;7.43;5.35;;;;;;;30.13;65.26;100907.41;5022861;28;70396;-37
2021/09/23 02:02:29;;;;;;;5.88;4.82;;;;;;;30.07;64.85;100897.47;5031037;28;66117;-37
2021/09/23 02:05:37;;;;;;;6.82;4.88;;;;;;;30.15;64.67;100910.75;5023195;28;70273;-37
2021/09/23 02:08:24;;;;;;;5.22;4.72;;;;;;;30.16;64.25;100907.00;5021943;27;66525;-37
2021/09/23 02:11:08;;;;;;;5.28;4.82;;;;;;;30.21;63.75;100903.66;5037132;28;69480;-37
2021/09/23 02:14:09;;;;;;;5.13;4.45;;;;;;;30.11;63.66;100887.84;5018597;28;64984;-39
2021/09/23 02:17:04;;;;;;;5.97;4.70;;;;;;;30.20;64.09;100892.00;5025100;28;70320;-37
2021/09/23 02:20:12;;;;;;;6.88;5.40;;;;;;;30.24;63.08;100904.06;5038520;28;65438;-37
2021/09/23 02:22:58;;;;;;;11.52;5.18;;;;;;;30.21;63.56;100896.34;5039417;28;70004;-37
2021/09/23 02:25:41;;;;;;;5.38;4.90;;;;;;;30.28;63.97;100910.72;5044355;28;66478;-37
2021/09/23 02:28:25;;;;;;;8.68;4.72;;;;;;;30.28;63.42;100899.03;5045541;28;70599;-36
2021/09/23 02:31:06;;;;;;;9.77;5.38;;;;;;;30.18;63.72;100883.25;5047335;28;65473;-37
2021/09/23 02:34:03;;;;;;;4.53;4.13;;;;;;;30.31;63.06;100893.19;5044227;28;70459;-38
2021/09/23 02:36:36;;;;;;;4.47;4.13;;;;;;;30.31;62.96;100897.78;5051540;28;65447;-38
2021/09/23 02:39:11;;;;;;;9.82;4.68;;;;;;;30.27;63.45;100892.81;5031219;28;69044;-38
2021/09/23 02:42:02;;;;;;;5.38;4.20;;;;;;;30.35;62.92;100894.44;5046218;28;66458;-37
2021/09/23 02:44:38;;;;;;;8.57;3.92;;;;;;;30.36;63.17;100900.69;5031738;28;69169;-38
2021/09/23 02:47:23;;;;;;;4.28;3.90;;;;;;;30.40;62.88;100901.91;5026481;28;65532;-38
2021/09/23 02:50:15;;;;;;;5.03;3.83;;;;;;;30.40;62.64;100891.91;5043459;28;69909;-38
2021/09/23 02:52:51;;;;;;;4.30;3.90;;;;;;;30.44;62.61;100893.13;5033299;28;66439;-38
2021/09/23 02:55:31;;;;;;;4.32;3.55;;;;;;;30.46;62.43;100888.34;5048051;28;70789;-37
2021/09/23 02:58:09;;;;;;;5.03;3.72;;;;;;;30.47;61.99;100897.28;5040152;28;65822;-39
2021/09/23 03:00:42;;;;;;;4.10;3.40;;;;;;;30.48;62.08;100880.00;5016346;28;70309;-37
2021/09/23 03:03:24;;;;;;;6.05;2.92;;;;;;;30.53;61.73;100890.16;5042547;28;67147;-37
2021/09/23 03:05:59;;;;;;;7.22;2.75;;;;;;;30.51;62.29;100885.00;5042859;28;69983;-36
2021/09/23 03:08:35;;;;;;;7.25;3.13;;;;;;;30.58;61.27;100888.47;5017591;28;65552;-36
2021/09/23 03:11:13;;;;;;;7.25;2.83;;;;;;;30.58;61.78;100874.09;5025437;28;70125;-37
2021/09/23 03:14:10;;;;;;;2.72;2.25;;;;;;;30.64;61.26;100879.47;5042393;28;66074;-35
2021/09/23 03:16:48;;;;;;;3.55;2.22;;;;;;;30.66;60.81;100880.09;5032126;28;69465;-37
2021/09/23 03:19:32;;;;;;;4.82;2.22;;;;;;;30.66;60.69;100880.09;5051561;28;66479;-35
2021/09/23 03:22:17;;;;;;;5.60;2.22;;;;;;;30.69;61.09;100881.53;5042983;28;69577;-37
2021/09/23 03:24:52;;;;;;;2.65;2.45;;;;;;;30.70;60.14;100878.63;5029354;28;66173;-35
2021/09/23 03:27:27;;;;;;;2.67;1.90;;;;;;;30.78;59.74;100882.09;5041496;28;69970;-37
2021/09/23 03:30:06;;;;;;;10.90;2.63;;;;;;;30.81;60.01;100877.09;5018917;28;66018;-36
2021/09/23 03:32:40;;;;;;;2.45;2.10;;;;;;;30.84;59.69;100868.53;5042144;28;70084;-37
2021/09/23 03:35:17;;;;;;;3.35;2.13;;;;;;;30.86;59.43;100873.72;5047927;28;65769;-36
2021/09/23 03:38:17;;;;;;;2.17;1.95;;;;;;;30.80;59.09;100866.50;5028766;28;69314;-36
2021/09/23 03:41:01;;;;;;;2.35;1.50;;;;;;;30.89;59.50;100870.56;5042669;28;65777;-37
2021/09/23 03:43:32;;;;;;;;;;;;;;;30.64;59.79;100865.94;5026721;28;70292;-36
2021/09/23 03:46:07;;;;;;;4.45;2.05;;;;;;;30.89;60.08;100863.28;5038786;28;64925;-37
2021/09/23 03:48:38;;;;;;;2.10;1.90;;;;;;;30.94;59.71;100859.91;5043362;28;70309;-36
2021/09/23 03:51:09;;;;;;;2.75;2.10;;;;;;;30.93;59.59;100858.25;5035172;28;66856;-47
2021/09/23 03:53:43;;;;;;;2.53;1.90;;;;;;;30.86;59.71;100846.66;5024319;28;70144;-36
2021/09/23 03:56:15;;;;;;;2.60;2.40;;;;;;;31.00;59.83;100848.19;5036366;28;65401;-37
2021/09/23 03:58:49;;;;;;;4.50;3.67;;;;;;;31.00;59.83;100836.53;5022483;28;68752;-37
2021/09/23 04:01:20;;;;;;;3.38;2.92;;;;;;;31.01;59.25;100844.44;5022953;28;66319;-37
2021/09/23 04:03:51;;;;;;;12.50;4.38;;;;;;;31.05;59.75;100833.97;5038063;28;70182;-37
2021/09/23 04:06:24;;;;;;;3.55;2.55;;;;;;;31.07;59.29;100831.88;5037212;28;66197;-37
2021/09/23 04:08:55;;;;;;;4.30;2.87;;;;;;;31.07;59.21;100821.88;5035840;28;68992;-36
2021/09/23 04:11:26;;;;;;;3.80;3.08;;;;;;;31.12;59.18;100826.59;5036300;28;66168;-36
2021/09/23 04:13:57;;;;;;;4.05;3.05;;;;;;;31.12;59.38;100827.47;5033464;28;70490;-36
2021/09/23 04:16:28;;;;;;;4.70;2.58;;;;;;;31.12;59.53;100819.31;5037006;28;66398;-38
2021/09/23 04:18:59;;;;;;;2.50;1.90;;;;;;;31.13;58.90;100826.38;5034961;27;70114;-36
2021/09/23 04:21:31;;;;;;;3.33;2.50;;;;;;;31.19;59.34;100827.38;5040496;28;65852;-37
2021/09/23 04:24:02;;;;;;;3.27;2.17;;;;;;;31.20;59.64;100828.19;5035336;28;69095;-37
2021/09/23 04:26:35;;;;;;;4.57;2.67;;;;;;;31.24;58.57;100826.72;5031597;28;65169;-36
2021/09/23 04:29:06;;;;;;;3.60;2.30;;;;;;;31.24;59.37;100826.72;5032164;28;70402;-36
2021/09/23 04:31:38;;;;;;;3.65;2.75;;;;;;;31.25;59.26;100817.53;5043665;28;66558;-36
2021/09/23 04:34:09;;;;;;;4.28;2.20;;;;;;;31.25;59.15;100823.75;5030649;28;70291;-37
2021/09/23 04:36:40;;;;;;;2.50;2.10;;;;;;;31.27;59.01;100813.53;5037176;27;65040;-37
2021/09/23 04:39:12;;;;;;;7.95;2.33;;;;;;;31.28;58.74;100806.22;5035826;28;69973;-38
2021/09/23 04:41:43;;;;;;;8.73;2.65;;;;;;;31.30;59.10;100804.94;5037485;28;65839;-38
2021/09/23 04:44:15;;;;;;;3.92;2.58;;;;;;;31.31;58.90;100805.78;5027819;28;70121;-38
2021/09/23 04:46:46;;;;;;;2.80;2.53;;;;;;;31.33;59.10;100799.06;5038028;28;66380;-37
2021/09/23 04:49:17;;;;;;;6.53;2.57;;;;;;;31.33;58.97;100798.25;5046671;27;69140;-39
2021/09/23 04:51:48;;;;;;;6.73;2.30;;;;;;;31.36;58.90;100803.25;5052148;28;65578;-37
2021/09/23 04:54:20;;;;;;;3.87;1.97;;;;;;;31.36;58.57;100797.84;5047647;28;70030;-36
2021/09/23 04:56:51;;;;;;;2.65;2.05;;;;;;;31.41;58.77;100795.28;5043940;28;65307;-36
2021/09/23 04:59:22;;;;;;;2.80;2.22;;;;;;;31.44;58.34;100792.13;5043578;28;69443;-37
2021/09/23 05:01:53;;;;;;;2.70;2.50;;;;;;;31.46;57.78;100781.06;5051532;27;66211;-37
2021/09/23 05:04:26;;;;;;;8.98;2.30;;;;;;;31.49;58.19;100786.84;5038214;28;70678;-36
2021/09/23 05:06:58;;;;;;;3.05;2.00;;;;;;;31.50;57.78;100785.78;5034205;28;66017;-36
2021/09/23 05:09:31;;;;;;;4.83;2.10;;;;;;;31.51;58.42;100783.88;5042843;28;70238;-37
2021/09/23 05:12:03;;;;;;;2.42;2.20;;;;;;;31.51;58.03;100768.47;5039931;28;66286;-36
2021/09/23 05:14:34;;;;;;;9.40;2.20;;;;;;;31.56;57.97;100765.06;5038205;28;70006;-36
2021/09/23 05:17:06;;;;;;;2.80;2.28;;;;;;;31.56;58.00;100759.63;5047451;28;65989;-38
2021/09/23 05:19:38;;;;;;;2.90;1.38;;;;;;;31.57;57.75;100759.44;5039910;28;69482;-36
2021/09/23 05:22:09;;;;;;;3.70;2.38;;;;;;;31.60;57.18;100761.69;5040778;28;66871;-37
2021/09/23 05:24:42;;;;;;;4.73;1.83;;;;;;;31.63;57.09;100754.16;5045431;28;69311;-37
2021/09/23 05:27:13;;;;;;;2.90;1.60;;;;;;;31.67;57.54;100749.91;5045797;28;65711;-36
2021/09/23 05:29:45;;;;;;;3.90;2.38;;;;;;;31.68;57.53;100751.56;5024132;28;70207;-36
2021/09/23 05:32:18;;;;;;;4.05;1.77;;;;;;;31.68;57.96;100746.13;5039482;28;66193;-35
2021/09/23 05:34:49;;;;;;;4.03;1.60;;;;;;;31.60;56.84;100734.56;5033512;28;69891;-35
2021/09/23 05:37:21;;;;;;;8.43;1.90;;;;;;;31.50;56.74;100734.28;5038039;28;66164;-37
2021/09/23 05:39:52;;;;;;;6.15;1.65;;;;;;;31.43;56.01;100736.25;5041653;28;70491;-37
2021/09/23 05:42:26;;;;;;;3.22;1.58;;;;;;;31.36;55.34;100741.75;5037705;28;66134;-37
2021/09/23 05:44:59;;;;;;;3.28;1.58;;;;;;;31.33;55.20;100735.91;5045807;28;70232;-38
2021/09/23 05:47:32;;;;;;;6.63;2.05;;;;;;;31.25;55.34;100747.06;5046073;28;65499;-40
2021/09/23 05:50:05;;;;;;;3.40;1.52;;;;;;;31.18;54.60;100739.03;5021166;28;70339;-37
2021/09/23 05:52:36;;;;;;;8.07;1.50;;;;;;;31.15;54.80;100728.63;5036559;28;66019;-36
2021/09/23 05:55:09;;;;;;;12.73;1.85;;;;;;;31.10;54.46;100723.88;5045091;28;70249;-38
2021/09/23 05:57:39;;;;;;;;;;;;;;;30.79;53.56;100715.88;5011051;28;66270;-37
2021/09/23 06:00:16;;;;;;;7.63;1.57;;;;;;;30.97;52.92;100707.78;5042146;28;70468;-37
2021/09/23 06:02:48;;;;;;;15.18;1.48;;;;;;;30.94;53.18;100710.94;5040197;28;66320;-37
2021/09/23 06:05:20;;;;;;;15.27;1.45;;;;;;;30.92;52.41;100713.03;5039343;27;69667;-36
2021/09/23 06:07:51;;;;;;;6.95;1.40;;;;;;;30.86;52.47;100701.22;5041247;28;66228;-37
2021/09/23 06:10:22;;;;;;;11.67;1.27;;;;;;;30.83;51.98;100706.25;5038564;28;70506;-36
2021/09/23 06:12:53;;;;;;;12.68;1.67;;;;;;;30.79;51.93;100696.91;5036897;28;65935;-36
2021/09/23 06:15:25;;;;;;;7.97;1.58;;;;;;;30.73;51.78;100691.34;5036100;28;69282;-36
2021/09/23 06:17:57;;;;;;;16.55;1.70;;;;;;;30.70;51.19;100686.38;5041701;28;65429;-36
2021/09/23 06:20:28;;;;;;;9.15;1.38;;;;;;;30.66;51.08;100677.03;5039886;28;70483;-36
2021/09/23 06:22:59;;;;;;;3.15;1.17;;;;;;;30.64;50.62;100676.41;5037804;28;65224;-36
2021/09/23 06:25:31;;;;;;;1.50;0.97;;;;;;;30.58;51.02;100677.31;5036802;28;69884;-38
2021/09/23 06:28:02;;;;;;;6.72;1.52;;;;;;;30.58;50.77;100677.31;5040549;28;65844;-37
2021/09/23 06:30:34;;;;;;;3.85;1.13;;;;;;;30.57;50.78;100675.66;5040487;28;69584;-36
2021/09/23 06:33:06;;;;;;;2.97;0.90;;;;;;;30.56;50.45;100673.16;5045178;28;66012;-36
2021/09/23 06:35:39;;;;;;;2.58;1.02;;;;;;;30.51;50.21;100665.75;5048965;28;70534;-36
2021/09/23 06:38:12;;;;;;;5.68;0.93;;;;;;;30.42;50.14;100650.81;5040033;28;66057;-36
2021/09/23 06:40:44;;;;;;;5.65;1.17;;;;;;;30.46;49.96;100652.03;5042105;28;69131;-36
2021/09/23 06:43:15;;;;;;;1.20;1.03;;;;;;;30.46;50.34;100644.75;5046581;28;66147;-36
2021/09/23 06:45:47;;;;;;;1.30;0.90;;;;;;;30.45;49.69;100639.53;5051411;28;70146;-36
2021/09/23 06:48:19;;;;;;;2.75;0.90;;;;;;;30.45;49.38;100634.13;5046890;28;67098;-36
2021/09/23 06:50:51;;;;;;;1.48;0.90;;;;;;;30.47;49.73;100637.44;5039787;28;69950;-36
2021/09/23 06:53:23;;;;;;;7.15;1.10;;;;;;;30.44;49.63;100627.88;5045933;28;66368;-36
2021/09/23 06:55:56;;;;;;;1.60;1.02;;;;;;;30.49;49.15;100625.34;5045184;28;69789;-36
2021/09/23 06:58:32;;;;;;;1.52;1.15;;;;;;;30.49;49.09;100625.34;4999750;28;66114;-36
2021/09/23 07:01:21;;;;;;;2.47;1.15;;;;;;;30.49;49.14;100605.56;5037247;28;70352;-36
2021/09/23 07:04:13;;;;;;;1.60;0.90;;;;;;;30.49;48.78;100606.41;5029712;28;65431;-37
2021/09/23 07:07:05;;;;;;;1.73;1.10;;;;;;;30.53;48.74;100612.19;5037666;28;70213;-35
2021/09/23 07:09:47;;;;;;;1.20;1.10;;;;;;;30.55;48.88;100610.09;5037557;28;65752;-37
2021/09/23 07:12:35;;;;;;;1.33;0.90;;;;;;;30.55;49.39;100601.97;5027479;28;70132;-38
2021/09/23 07:15:13;;;;;;;1.35;0.90;;;;;;;30.55;48.86;100604.69;5031409;28;64807;-36
2021/09/23 07:17:51;;;;;;;3.08;1.00;;;;;;;30.57;49.08;100608.00;5054202;28;70770;-36
2021/09/23 07:20:23;;;;;;;2.28;1.30;;;;;;;30.58;48.36;100595.28;5029732;28;66302;-37
2021/09/23 07:23:00;;;;;;;1.45;1.20;;;;;;;30.58;49.08;100596.09;5028728;28;70207;-36
2021/09/23 07:25:34;;;;;;;1.10;1.00;;;;;;;30.59;49.02;100597.78;5041436;28;66559;-37
2021/09/23 07:28:15;;;;;;;3.65;1.00;;;;;;;30.60;48.16;100594.00;5042609;28;69069;-37
2021/09/23 07:30:56;;;;;;;3.55;1.10;;;;;;;30.58;48.87;100593.41;5025489;28;67019;-37
2021/09/23 07:33:31;;;;;;;1.92;1.17;;;;;;;30.42;48.66;100566.91;5031163;28;70509;-37
2021/09/23 07:36:08;;;;;;;2.65;1.15;;;;;;;30.59;50.45;100586.94;5027882;28;66088;-36
2021/09/23 07:38:48;;;;;;;1.30;1.08;;;;;;;30.59;49.51;100586.94;5027212;28;70708;-37
2021/09/23 07:41:26;;;;;;;2.15;1.10;;;;;;;30.60;49.55;100590.47;5034858;28;66347;-38
2021/09/23 07:43:59;;;;;;;1.85;1.10;;;;;;;30.63;49.24;100590.84;5043505;27;70302;-37
2021/09/23 07:46:42;;;;;;;1.77;1.15;;;;;;;30.63;49.48;100604.38;5034797;28;66040;-36
2021/09/23 07:49:19;;;;;;;3.88;1.13;;;;;;;30.61;48.89;100594.81;5035649;28;70276;-36
2021/09/23 07:51:55;;;;;;;6.65;1.35;;;;;;;30.61;49.78;100582.09;5035474;28;66338;-38
2021/09/23 07:54:34;;;;;;;1.77;1.30;;;;;;;30.65;52.38;100586.03;5035515;28;69696;-37
2021/09/23 07:57:08;;;;;;;2.20;1.60;;;;;;;30.68;51.63;100599.13;5044245;28;65820;-37
2021/09/23 07:59:52;;;;;;;1.98;1.70;;;;;;;30.72;51.42;100603.00;5041023;28;71324;-38
2021/09/23 08:02:29;;;;;;;4.72;1.63;;;;;;;30.70;51.12;100605.16;5008430;28;66213;-37
2021/09/23 08:05:03;;;;;;;1.70;1.35;;;;;;;30.71;50.17;100614.91;5024485;28;70499;-38
2021/09/23 08:07:39;;;;;;;4.90;2.00;;;;;;;30.75;50.68;100611.75;5027092;28;66175;-37
2021/09/23 08:10:18;;;;;;;2.30;1.50;;;;;;;30.73;49.90;100599.28;5018841;28;70136;-36
2021/09/23 08:12:51;;;;;;;9.63;1.70;;;;;;;30.73;49.36;100604.69;5048065;28;65201;-36
2021/09/23 08:15:28;;;;;;;9.27;2.00;;;;;;;30.72;49.36;100613.84;5018288;28;70399;-37
2021/09/23 08:18:20;;;;;;;6.18;1.80;;;;;;;30.72;49.31;100619.25;5026890;28;66173;-37
2021/09/23 08:21:06;;;;;;;2.75;1.67;;;;;;;30.71;49.30;100623.03;5028160;28;69947;-37
2021/09/23 08:23:38;;;;;;;2.28;1.58;;;;;;;30.69;49.45;100614.31;5030302;28;66976;-43
2021/09/23 08:26:24;;;;;;;4.40;1.92;;;;;;;30.70;49.58;100610.56;5040123;28;69786;-38
2021/09/23 08:28:57;;;;;;;13.32;2.20;;;;;;;30.72;49.63;100605.72;5026049;27;67722;-37
2021/09/23 08:31:33;;;;;;;18.98;2.20;;;;;;;30.74;50.71;100594.69;5016799;28;69458;-37
2021/09/23 08:34:10;;;;;;;8.18;2.00;;;;;;;30.79;51.55;100594.00;5042002;28;66358;-37
2021/09/23 08:36:47;;;;;;;3.17;2.08;;;;;;;30.92;52.54;100591.16;5030566;28;70380;-37
2021/09/23 08:39:25;;;;;;;3.95;2.20;;;;;;;31.00;52.77;100593.53;5041526;28;65867;-37
2021/09/23 08:41:57;;;;;;;2.35;1.60;;;;;;;31.09;52.84;100589.50;5038391;28;70126;-38
2021/09/23 08:44:40;;;;;;;5.03;2.35;;;;;;;31.15;53.54;100591.28;5027533;28;65318;-37
2021/09/23 08:47:18;;;;;;;2.83;2.50;;;;;;;31.27;53.52;100604.03;5027028;28;69536;-36
2021/09/23 08:49:50;;;;;;;2.67;2.17;;;;;;;31.30;53.55;100593.56;4998998;28;66209;-38
2021/09/23 08:52:24;;;;;;;3.53;2.17;;;;;;;31.34;54.91;100594.78;5026390;28;71191;-36
2021/09/23 08:54:57;;;;;;;2.97;2.40;;;;;;;31.39;55.58;100588.66;5037154;28;66233;-35
2021/09/23 08:57:30;;;;;;;6.00;2.78;;;;;;;31.46;56.35;100584.00;5039712;28;69389;-37
2021/09/23 09:00:10;;;;;;;3.28;2.95;;;;;;;31.53;57.48;100587.41;5015372;28;66667;-37
2021/09/23 09:02:58;;;;;;;3.65;2.55;;;;;;;31.56;57.35;100586.94;5033113;28;69501;-37
2021/09/23 09:05:52;;;;;;;3.03;2.72;;;;;;;31.61;58.94;100594.41;5053421;28;66970;-37
2021/09/23 09:11:43;;;;;;;5.00;2.88;;;;;;;31.66;58.98;100591.00;5019644;28;67057;-36
2021/09/23 09:14:27;;;;;;;7.40;3.25;;;;;;;31.72;59.99;100590.06;5029037;28;69434;-36
2021/09/23 09:17:04;;;;;;;2.67;2.47;;;;;;;31.75;59.53;100590.41;5027933;27;67647;-38
2021/09/23 09:19:59;;;;;;;4.03;3.35;;;;;;;31.70;60.82;100586.75;5028235;28;69385;-35
2021/09/23 09:22:34;;;;;;;13.68;3.42;;;;;;;31.79;59.77;100596.22;5024161;28;66524;-35
2021/09/23 09:25:10;;;;;;;6.97;3.08;;;;;;;31.82;60.38;100596.56;5023934;28;70055;-37
2021/09/23 09:27:50;;;;;;;2.80;2.60;;;;;;;31.87;60.97;100593.13;4994337;28;65925;-36
2021/09/23 09:30:24;;;;;;;5.53;2.90;;;;;;;31.89;61.30;100592.91;5045764;27;69802;-37
2021/09/23 09:32:57;;;;;;;3.40;3.00;;;;;;;31.89;60.58;100585.59;5006542;28;65570;-36
2021/09/23 09:35:34;;;;;;;8.27;2.85;;;;;;;31.88;60.52;100578.53;5030368;28;70277;-38
2021/09/23 09:38:10;;;;;;;4.65;3.58;;;;;;;31.88;60.96;100566.88;5032841;28;66563;-36
2021/09/23 09:40:43;;;;;;;4.88;3.05;;;;;;;31.88;60.72;100573.09;5013778;28;68707;-37
2021/09/23 09:43:17;;;;;;;4.07;3.08;;;;;;;31.91;60.83;100571.81;5028516;28;65687;-37
2021/09/23 09:45:51;;;;;;;3.53;3.33;;;;;;;31.91;61.09;100578.09;5012534;28;69927;-37
2021/09/23 09:48:28;;;;;;;;;;;;;;;31.64;62.24;100583.09;5029483;28;66961;-37
2021/09/23 09:51:03;;;;;;;7.80;2.70;;;;;;;31.88;60.96;100583.13;5030999;27;70619;-37
2021/09/23 09:53:35;;;;;;;3.30;3.00;;;;;;;31.88;60.90;100589.38;5016039;28;66144;-37
2021/09/23 09:56:24;;;;;;;3.90;2.58;;;;;;;31.79;60.95;100578.06;5033484;28;69812;-38
2021/09/23 09:59:24;;;;;;;3.78;3.33;;;;;;;31.77;61.33;100590.19;5018531;28;66761;-38
2021/09/23 10:01:59;;;;;;;3.53;3.22;;;;;;;31.87;61.20;100592.31;5023935;28;70753;-37
2021/09/23 10:04:34;;;;;;;3.97;3.67;;;;;;;31.87;61.82;100603.97;5025643;28;66691;-37
2021/09/23 10:07:06;;;;;;;7.18;3.78;;;;;;;31.90;61.53;100603.53;5033074;28;70397;-37
2021/09/23 10:09:42;;;;;;;6.93;5.38;;;;;;;31.93;61.11;100602.25;5001705;28;66021;-37
2021/09/23 10:12:15;;;;;;;14.82;5.80;;;;;;;31.90;61.03;100598.13;5000762;28;70004;-37
2021/09/23 10:14:51;;;;;;;6.43;5.43;;;;;;;31.91;61.39;100605.22;5016564;28;67035;-37
2021/09/23 10:17:23;;;;;;;6.82;6.28;;;;;;;31.92;61.45;100612.28;5031104;28;70480;-37
2021/09/23 10:20:00;;;;;;;15.27;6.13;;;;;;;31.92;61.84;100623.13;5034570;28;64570;-37
2021/09/23 10:22:33;;;;;;;15.35;6.63;;;;;;;31.95;61.56;100625.38;5031233;28;70211;-37
2021/09/23 10:25:08;;;;;;;13.43;6.95;;;;;;;32.01;61.58;100626.31;5029720;28;66381;-39
2021/09/23 10:28:03;;;;;;;7.72;5.85;;;;;;;32.01;61.94;100624.47;5034111;28;70644;-37
2021/09/23 10:30:44;;;;;;;8.02;6.03;;;;;;;32.07;62.29;100630.00;5033729;28;66598;-38
2021/09/23 10:33:20;;;;;;;9.65;6.25;;;;;;;32.08;62.48;100637.09;5038793;28;69093;-38
2021/09/23 10:35:53;;;;;;;6.25;5.60;;;;;;;32.11;62.46;100642.03;5033324;28;66236;-38
2021/09/23 10:38:32;;;;;;;6.80;5.53;;;;;;;32.11;62.79;100647.47;5035723;28;70092;-38
2021/09/23 10:41:06;;;;;;;10.13;5.82;;;;;;;32.10;63.30;100651.25;5031534;28;66542;-37
2021/09/23 10:43:42;;;;;;;9.77;6.28;;;;;;;32.12;63.54;100652.66;5018320;28;70396;-37
2021/09/23 10:46:16;;;;;;;8.77;5.85;;;;;;;32.15;62.88;100654.06;5019404;28;67413;-37
2021/09/23 10:48:49;;;;;;;11.02;6.10;;;;;;;32.10;63.05;100640.41;5039309;28;71462;-37
2021/09/23 10:51:33;;;;;;;7.50;5.25;;;;;;;32.18;62.78;100650.88;5021873;28;65644;-38
2021/09/23 10:54:12;;;;;;;6.70;6.20;;;;;;;32.18;62.87;100665.31;5038226;28;70591;-37
2021/09/23 10:56:44;;;;;;;5.57;5.18;;;;;;;32.17;63.34;100660.91;5036887;28;65738;-37
2021/09/23 10:59:21;;;;;;;7.43;6.65;;;;;;;32.21;62.83;100669.44;5021963;28;70135;-39
2021/09/23 11:01:52;;;;;;;6.70;6.10;;;;;;;32.19;62.50;100666.13;5039629;28;66804;-38
2021/09/23 11:04:37;;;;;;;6.57;5.97;;;;;;;32.21;62.60;100669.44;5038402;28;69484;-41
2021/09/23 11:07:09;;;;;;;8.68;6.85;;;;;;;32.23;62.51;100675.44;5021113;28;64720;-37
2021/09/23 11:10:08;;;;;;;7.97;6.03;;;;;;;32.15;62.92;100676.63;5040105;28;69635;-38
2021/09/23 11:12:48;;;;;;;7.68;6.72;;;;;;;32.26;62.00;100683.94;5035721;27;65397;-37
2021/09/23 11:15:24;;;;;;;7.13;5.88;;;;;;;32.26;61.96;100688.53;5020784;28;70464;-35
2021/09/23 11:17:58;;;;;;;10.25;6.93;;;;;;;32.27;61.83;100690.19;5019051;28;67431;-37
2021/09/23 11:20:49;;;;;;;6.55;6.03;;;;;;;32.22;61.73;100692.78;5036395;28;69867;-37
2021/09/23 11:23:24;;;;;;;8.32;7.63;;;;;;;32.24;61.89;100707.78;5020065;28;66607;-37
2021/09/23 11:25:57;;;;;;;7.10;6.60;;;;;;;32.26;61.98;100704.81;5014019;28;70485;-36
2021/09/23 11:28:32;;;;;;;7.05;6.47;;;;;;;32.27;61.76;100703.78;5006240;28;65137;-38
2021/09/23 11:31:04;;;;;;;7.47;6.85;;;;;;;32.26;61.76;100716.53;5021358;28;70889;-38
2021/09/23 11:33:41;;;;;;;8.48;7.65;;;;;;;32.19;61.86;100706.81;5018477;28;65433;-36
2021/09/23 11:36:14;;;;;;;8.77;7.28;;;;;;;32.29;61.99;100712.53;5012360;28;69329;-38
2021/09/23 11:38:55;;;;;;;10.27;7.97;;;;;;;32.33;61.59;100718.31;5004552;28;65471;-37
2021/09/23 11:41:27;;;;;;;12.68;8.07;;;;;;;32.35;61.84;100717.00;5019150;28;71736;-36
2021/09/23 11:43:59;;;;;;;8.15;7.45;;;;;;;32.35;61.49;100714.28;5045056;28;66627;-37
2021/09/23 11:46:34;;;;;;;8.55;7.75;;;;;;;32.35;61.48;100714.28;5038116;28;69452;-37
2021/09/23 11:49:10;;;;;;;9.93;8.05;;;;;;;32.34;61.61;100717.22;5028088;28;65481;-36
2021/09/23 11:54:51;;;;;;;8.38;7.47;;;;;;;32.28;61.52;100713.56;5030744;28;66670;-36
2021/09/23 11:57:27;;;;;;;8.52;7.53;;;;;;;32.32;61.63;100720.19;5016156;28;70385;-36
2021/09/23 12:00:01;;;;;;;7.85;7.25;;;;;;;32.31;61.46;100721.22;5034961;28;66199;-36
2021/09/23 12:03:04;;;;;;;7.30;6.80;;;;;;;32.26;61.37;100727.38;5031624;28;70240;-36
2021/09/23 12:05:40;;;;;;;8.18;7.35;;;;;;;32.33;61.43;100724.53;5047113;27;65762;-36
2021/09/23 12:08:25;;;;;;;7.65;7.13;;;;;;;32.31;61.13;100726.66;5003606;28;70679;-36
2021/09/23 12:11:03;;;;;;;7.85;7.22;;;;;;;32.28;61.17;100719.81;5007520;28;65865;-37
2021/09/23 12:14:06;;;;;;;7.25;6.35;;;;;;;32.33;61.05;100727.25;5029688;28;69384;-36
2021/09/23 12:16:40;;;;;;;11.43;7.60;;;;;;;32.31;61.48;100732.09;5032724;28;67169;-35
2021/09/23 12:19:23;;;;;;;7.32;6.50;;;;;;;32.26;60.80;100734.66;5031188;28;70738;-36
2021/09/23 12:22:06;;;;;;;9.35;7.00;;;;;;;32.09;60.03;100742.66;5031882;28;65727;-40